aviador You're here:

KAAF Decoded Metar

APALACHICOLA in FL, USA
Report Time2018-04-21 08:53:00
UTC Time2018-04-21 09:22:32
Flight Rules mvfr MVFR
Wind080° at 09 Gusting to 16 kt
W.Decomp.*RWY 06: 8.3 kt HW 3.5 kt RCW
RWY 14: 4.9 kt HW 7.5 kt LCW
RWY 36: 1.1 kt HW 8.9 kt RCW
W.Rank080° ranks 31
Current wind is above 080° avg. (6.6)
Visibility9999 m
Phenomena:N/A
Clouds:Overcast 014 Hf
Expected CloudBase > 800 ft AGL from Temp-Dew spread
Ceiling1,400 ft
Temp19°C (ISA +4)
Dew Point17°C (88% RH)
AAT18.1°C
QNH1021 hPa
Density Alt476 ft
Elevation16 ft
Report Wrong Elevation
Raw Report
METAR KAAF 210853Z AUTO 08009G16KT 10SM OVC014 19/17 A3015 RMK AO2
SLP210 T01890167 56004 $=

Extra information for KAAF:More info

Metar Taf Metar & Taf Last 4 Metars F.Rules Stats Wind Profile Meteogram Temp Stats Airport Information Weather charts Add Link Nearby VenuesMetar ALERT Operation Metar Decoded Social comments

AIRNAV info for KAAF